Terminal Aerodrome Forecast
Issued by NWS Pocatello, ID

Home | Current Version | Previous Version | Text Only | Print | Product List | Glossary On
Versions: 1 2 3 4 5 6 7 8 9 10 11 12 13
000
FTUS45 KPIH 020520
TAFIDA
TAF
KIDA 020520Z 0206/0306 17008KT P6SM FEW130
     FM021500 22010G20KT P6SM BKN130
     FM022000 23020G30KT P6SM FEW130
     FM030200 19010KT P6SM VCSH BKN120=

USA.gov is the U.S. government's official web portal to all federal, state and local government web resources and services.